sensor_id;sensor_type;location;lat;lon;timestamp;pressure;altitude;pressure_sealevel;temperature;humidity
76611;BME280;65503;48.534;9.062;2023-06-04T00:01:23;96930.38;;;18.74;47.21
76611;BME280;65503;48.534;9.062;2023-06-04T00:03:50;96922.97;;;18.71;48.31
76611;BME280;65503;48.534;9.062;2023-06-04T00:06:16;96925.75;;;18.61;48.36
76611;BME280;65503;48.534;9.062;2023-06-04T00:08:43;96926.41;;;18.43;48.82
76611;BME280;65503;48.534;9.062;2023-06-04T00:11:09;96920.09;;;18.34;49.04
76611;BME280;65503;48.534;9.062;2023-06-04T00:13:36;96906.31;;;18.27;49.03
76611;BME280;65503;48.534;9.062;2023-06-04T00:16:03;96904.19;;;18.24;49.17
76611;BME280;65503;48.534;9.062;2023-06-04T00:18:30;96903.44;;;18.18;48.87
76611;BME280;65503;48.534;9.062;2023-06-04T00:20:57;96907.78;;;18.09;48.48
76611;BME280;65503;48.534;9.062;2023-06-04T00:23:24;96909.69;;;18.03;49.04
76611;BME280;65503;48.534;9.062;2023-06-04T00:25:50;96906.00;;;17.94;50.08
76611;BME280;65503;48.534;9.062;2023-06-04T00:28:17;96904.75;;;17.87;50.19
76611;BME280;65503;48.534;9.062;2023-06-04T00:30:43;96907.19;;;17.78;50.31
76611;BME280;65503;48.534;9.062;2023-06-04T00:33:10;96904.56;;;17.73;50.51
76611;BME280;65503;48.534;9.062;2023-06-04T00:35:36;96908.28;;;17.72;50.45
76611;BME280;65503;48.534;9.062;2023-06-04T00:38:03;96908.34;;;17.67;50.45
76611;BME280;65503;48.534;9.062;2023-06-04T00:40:29;96913.16;;;17.65;50.22
76611;BME280;65503;48.534;9.062;2023-06-04T00:42:56;96911.56;;;17.64;49.99
76611;BME280;65503;48.534;9.062;2023-06-04T00:45:22;96916.88;;;17.64;50.45
76611;BME280;65503;48.534;9.062;2023-06-04T00:47:52;96919.00;;;17.62;50.62
76611;BME280;65503;48.534;9.062;2023-06-04T00:50:19;96914.53;;;17.52;51.75
76611;BME280;65503;48.534;9.062;2023-06-04T00:52:48;96924.94;;;17.44;52.51
76611;BME280;65503;48.534;9.062;2023-06-04T00:55:16;96924.97;;;17.39;52.93
76611;BME280;65503;48.534;9.062;2023-06-04T00:57:44;96917.00;;;17.33;53.17
76611;BME280;65503;48.534;9.062;2023-06-04T01:00:11;96925.56;;;17.25;53.58
76611;BME280;65503;48.534;9.062;2023-06-04T01:02:39;96917.06;;;17.23;53.77
76611;BME280;65503;48.534;9.062;2023-06-04T01:05:28;96931.97;;;17.19;53.74
76611;BME280;65503;48.534;9.062;2023-06-04T01:08:00;96923.75;;;17.11;54.05
76611;BME280;65503;48.534;9.062;2023-06-04T01:10:27;96924.03;;;17.04;55.07
76611;BME280;65503;48.534;9.062;2023-06-04T01:12:54;96921.16;;;16.96;54.79
76611;BME280;65503;48.534;9.062;2023-06-04T01:15:20;96926.75;;;16.89;54.75
76611;BME280;65503;48.534;9.062;2023-06-04T01:17:49;96922.28;;;16.79;55.00
76611;BME280;65503;48.534;9.062;2023-06-04T01:20:25;96925.47;;;16.71;55.09
76611;BME280;65503;48.534;9.062;2023-06-04T01:25:24;96932.09;;;16.59;55.08
76611;BME280;65503;48.534;9.062;2023-06-04T01:27:55;96933.44;;;16.51;54.22
76611;BME280;65503;48.534;9.062;2023-06-04T01:30:30;96930.00;;;16.50;54.74
76611;BME280;65503;48.534;9.062;2023-06-04T01:32:57;96932.13;;;16.38;54.98
76611;BME280;65503;48.534;9.062;2023-06-04T01:35:26;96929.47;;;16.33;55.30
76611;BME280;65503;48.534;9.062;2023-06-04T01:37:55;96928.69;;;16.33;55.46
76611;BME280;65503;48.534;9.062;2023-06-04T01:40:24;96921.22;;;16.35;54.94
76611;BME280;65503;48.534;9.062;2023-06-04T01:42:52;96921.50;;;16.33;55.12
76611;BME280;65503;48.534;9.062;2023-06-04T01:45:20;96917.00;;;16.29;55.29
76611;BME280;65503;48.534;9.062;2023-06-04T01:47:48;96925.22;;;16.27;54.99
76611;BME280;65503;48.534;9.062;2023-06-04T01:50:14;96928.94;;;16.26;55.06
76611;BME280;65503;48.534;9.062;2023-06-04T01:52:41;96927.91;;;16.22;54.75
76611;BME280;65503;48.534;9.062;2023-06-04T01:55:10;96924.69;;;16.20;54.34
76611;BME280;65503;48.534;9.062;2023-06-04T01:57:39;96919.38;;;16.20;54.49
76611;BME280;65503;48.534;9.062;2023-06-04T02:00:08;96917.78;;;16.19;54.15
76611;BME280;65503;48.534;9.062;2023-06-04T02:02:37;96919.38;;;16.20;53.94
76611;BME280;65503;48.534;9.062;2023-06-04T02:05:04;96916.72;;;16.20;53.22
76611;BME280;65503;48.534;9.062;2023-06-04T02:07:35;96918.88;;;16.23;52.85
76611;BME280;65503;48.534;9.062;2023-06-04T02:10:08;96919.66;;;16.29;51.83
76611;BME280;65503;48.534;9.062;2023-06-04T02:12:40;96913.53;;;16.33;52.10
76611;BME280;65503;48.534;9.062;2023-06-04T02:15:09;96920.72;;;16.38;52.08
76611;BME280;65503;48.534;9.062;2023-06-04T02:17:35;96917.22;;;16.47;51.87
76611;BME280;65503;48.534;9.062;2023-06-04T02:20:09;96916.72;;;16.45;52.36
76611;BME280;65503;48.534;9.062;2023-06-04T02:22:36;96917.78;;;16.44;52.46
76611;BME280;65503;48.534;9.062;2023-06-04T02:25:03;96919.91;;;16.42;53.22
76611;BME280;65503;48.534;9.062;2023-06-04T02:27:30;96920.72;;;16.38;53.76
76611;BME280;65503;48.534;9.062;2023-06-04T02:29:57;96925.47;;;16.36;54.45
76611;BME280;65503;48.534;9.062;2023-06-04T02:32:23;96925.50;;;16.31;54.67
76611;BME280;65503;48.534;9.062;2023-06-04T02:34:50;96925.75;;;16.24;55.48
76611;BME280;65503;48.534;9.062;2023-06-04T02:37:17;96919.94;;;16.17;55.58
76611;BME280;65503;48.534;9.062;2023-06-04T02:39:43;96919.41;;;16.10;56.27
76611;BME280;65503;48.534;9.062;2023-06-04T02:42:10;96925.75;;;16.04;57.30
76611;BME280;65503;48.534;9.062;2023-06-04T02:44:36;96924.72;;;16.00;57.71
76611;BME280;65503;48.534;9.062;2023-06-04T02:47:03;96939.53;;;15.96;57.92
76611;BME280;65503;48.534;9.062;2023-06-04T02:49:30;96930.53;;;15.87;57.77
76611;BME280;65503;48.534;9.062;2023-06-04T02:51:56;96940.03;;;15.73;57.68
76611;BME280;65503;48.534;9.062;2023-06-04T02:54:23;96929.44;;;15.73;58.01
76611;BME280;65503;48.534;9.062;2023-06-04T02:56:49;96930.22;;;15.63;59.09
76611;BME280;65503;48.534;9.062;2023-06-04T02:59:16;96934.91;;;15.51;59.04
76611;BME280;65503;48.534;9.062;2023-06-04T03:01:43;96937.56;;;15.51;59.82
76611;BME280;65503;48.534;9.062;2023-06-04T03:04:09;96932.50;;;15.44;59.28
76611;BME280;65503;48.534;9.062;2023-06-04T03:06:36;96938.34;;;15.41;58.82
76611;BME280;65503;48.534;9.062;2023-06-04T03:09:07;96945.25;;;15.37;58.22
76611;BME280;65503;48.534;9.062;2023-06-04T03:11:33;96956.34;;;15.34;58.40
76611;BME280;65503;48.534;9.062;2023-06-04T03:14:00;96953.94;;;15.32;58.25
76611;BME280;65503;48.534;9.062;2023-06-04T03:16:26;96950.50;;;15.32;57.99
76611;BME280;65503;48.534;9.062;2023-06-04T03:18:53;96955.25;;;15.25;59.59
76611;BME280;65503;48.534;9.062;2023-06-04T03:21:19;96961.59;;;15.19;59.71
76611;BME280;65503;48.534;9.062;2023-06-04T03:23:46;96960.78;;;15.13;58.84
76611;BME280;65503;48.534;9.062;2023-06-04T03:26:12;96966.34;;;15.12;59.58
76611;BME280;65503;48.534;9.062;2023-06-04T03:28:40;96961.84;;;15.12;59.84
76611;BME280;65503;48.534;9.062;2023-06-04T03:31:07;96967.38;;;15.11;60.20
76611;BME280;65503;48.534;9.062;2023-06-04T03:33:33;96962.59;;;15.03;60.31
76611;BME280;65503;48.534;9.062;2023-06-04T03:36:00;96968.13;;;14.96;60.69
76611;BME280;65503;48.534;9.062;2023-06-04T03:38:28;96959.38;;;15.01;60.10
76611;BME280;65503;48.534;9.062;2023-06-04T03:40:54;96971.59;;;15.02;60.57
76611;BME280;65503;48.534;9.062;2023-06-04T03:43:21;96966.28;;;15.02;59.64
76611;BME280;65503;48.534;9.062;2023-06-04T03:45:48;96967.88;;;15.03;59.97
76611;BME280;65503;48.534;9.062;2023-06-04T03:48:14;96976.13;;;15.06;59.35
76611;BME280;65503;48.534;9.062;2023-06-04T03:50:41;96973.72;;;15.10;59.06
76611;BME280;65503;48.534;9.062;2023-06-04T03:53:07;96974.84;;;15.14;59.24
76611;BME280;65503;48.534;9.062;2023-06-04T03:55:34;96973.72;;;15.10;60.75
76611;BME280;65503;48.534;9.062;2023-06-04T03:58:00;96980.06;;;15.04;61.46
76611;BME280;65503;48.534;9.062;2023-06-04T04:00:27;96980.06;;;15.04;61.29
76611;BME280;65503;48.534;9.062;2023-06-04T04:02:53;96969.47;;;15.04;61.22
76611;BME280;65503;48.534;9.062;2023-06-04T04:05:20;96982.22;;;15.07;60.97
76611;BME280;65503;48.534;9.062;2023-06-04T04:07:47;96978.53;;;15.13;60.48
76611;BME280;65503;48.534;9.062;2023-06-04T04:10:14;96978.03;;;15.21;59.56
76611;BME280;65503;48.534;9.062;2023-06-04T04:12:40;96977.28;;;15.25;58.58
76611;BME280;65503;48.534;9.062;2023-06-04T04:15:07;96982.88;;;15.34;58.26
76611;BME280;65503;48.534;9.062;2023-06-04T04:17:34;96978.16;;;15.46;58.32
76611;BME280;65503;48.534;9.062;2023-06-04T04:20:01;96968.38;;;15.57;58.50
76611;BME280;65503;48.534;9.062;2023-06-04T04:22:30;96976.91;;;15.64;59.01
76611;BME280;65503;48.534;9.062;2023-06-04T04:24:57;96986.47;;;15.65;59.33
76611;BME280;65503;48.534;9.062;2023-06-04T04:27:24;96990.44;;;15.67;59.49
76611;BME280;65503;48.534;9.062;2023-06-04T04:29:50;96994.69;;;15.68;58.66
76611;BME280;65503;48.534;9.062;2023-06-04T04:32:17;96997.91;;;15.76;57.64
76611;BME280;65503;48.534;9.062;2023-06-04T04:34:51;96997.44;;;16.09;57.32
76611;BME280;65503;48.534;9.062;2023-06-04T04:37:18;96995.91;;;16.69;56.93
76611;BME280;65503;48.534;9.062;2023-06-04T04:39:47;96996.81;;;17.33;55.93
76611;BME280;65503;48.534;9.062;2023-06-04T04:42:18;96999.25;;;17.89;54.56
76611;BME280;65503;48.534;9.062;2023-06-04T04:44:45;97002.50;;;18.59;52.40
76611;BME280;65503;48.534;9.062;2023-06-04T04:47:15;97009.44;;;19.18;50.91
76611;BME280;65503;48.534;9.062;2023-06-04T04:49:42;97014.16;;;19.73;49.14
76611;BME280;65503;48.534;9.062;2023-06-04T04:52:08;97013.16;;;20.07;47.62
76611;BME280;65503;48.534;9.062;2023-06-04T04:54:35;97012.50;;;20.52;46.82
76611;BME280;65503;48.534;9.062;2023-06-04T04:57:01;97003.13;;;21.01;45.16
76611;BME280;65503;48.534;9.062;2023-06-04T04:59:39;97013.69;;;21.38;44.39
76611;BME280;65503;48.534;9.062;2023-06-04T05:02:06;97014.47;;;21.80;43.31
76611;BME280;65503;48.534;9.062;2023-06-04T05:04:32;97026.53;;;22.18;42.24
76611;BME280;65503;48.534;9.062;2023-06-04T05:06:59;97011.31;;;22.50;41.83
76611;BME280;65503;48.534;9.062;2023-06-04T05:09:26;97023.91;;;22.85;40.57
76611;BME280;65503;48.534;9.062;2023-06-04T05:11:52;97026.31;;;23.18;39.91
76611;BME280;65503;48.534;9.062;2023-06-04T05:14:19;97024.66;;;23.39;39.43
76611;BME280;65503;48.534;9.062;2023-06-04T05:16:45;97032.16;;;23.59;39.11
76611;BME280;65503;48.534;9.062;2023-06-04T05:19:18;97034.09;;;23.67;39.25
76611;BME280;65503;48.534;9.062;2023-06-04T05:21:45;97034.78;;;23.99;37.58
76611;BME280;65503;48.534;9.062;2023-06-04T05:24:11;97038.63;;;24.15;37.49
76611;BME280;65503;48.534;9.062;2023-06-04T05:26:38;97036.78;;;24.24;36.92
76611;BME280;65503;48.534;9.062;2023-06-04T05:29:06;97042.00;;;24.20;36.85
76611;BME280;65503;48.534;9.062;2023-06-04T05:31:34;97040.88;;;24.30;37.20
76611;BME280;65503;48.534;9.062;2023-06-04T05:34:02;97048.94;;;24.56;36.73
76611;BME280;65503;48.534;9.062;2023-06-04T05:36:31;97043.72;;;24.77;35.16
76611;BME280;65503;48.534;9.062;2023-06-04T05:38:58;97045.28;;;24.78;35.63
76611;BME280;65503;48.534;9.062;2023-06-04T05:41:26;97046.28;;;24.30;35.18
76611;BME280;65503;48.534;9.062;2023-06-04T05:43:54;97044.69;;;24.29;34.66
76611;BME280;65503;48.534;9.062;2023-06-04T05:46:20;97045.00;;;24.53;34.49
76611;BME280;65503;48.534;9.062;2023-06-04T05:48:48;97042.28;;;24.96;32.59
76611;BME280;65503;48.534;9.062;2023-06-04T05:51:14;97044.44;;;25.20;33.45
76611;BME280;65503;48.534;9.062;2023-06-04T05:53:41;97051.00;;;25.48;32.27
76611;BME280;65503;48.534;9.062;2023-06-04T05:56:08;97049.25;;;25.90;32.36
76611;BME280;65503;48.534;9.062;2023-06-04T05:58:34;97055.19;;;26.05;31.61
76611;BME280;65503;48.534;9.062;2023-06-04T06:01:01;97050.31;;;25.98;31.84
76611;BME280;65503;48.534;9.062;2023-06-04T06:03:28;97051.00;;;26.16;31.13
76611;BME280;65503;48.534;9.062;2023-06-04T06:05:54;97052.78;;;26.12;31.32
76611;BME280;65503;48.534;9.062;2023-06-04T06:08:23;97053.56;;;26.42;30.63
76611;BME280;65503;48.534;9.062;2023-06-04T06:10:50;97055.34;;;26.08;31.32
76611;BME280;65503;48.534;9.062;2023-06-04T06:13:16;97061.84;;;26.07;30.74
76611;BME280;65503;48.534;9.062;2023-06-04T06:15:43;97057.09;;;26.33;30.69
76611;BME280;65503;48.534;9.062;2023-06-04T06:18:09;97063.00;;;26.68;29.38
76611;BME280;65503;48.534;9.062;2023-06-04T06:20:36;97058.13;;;26.62;29.64
76611;BME280;65503;48.534;9.062;2023-06-04T06:23:06;97058.09;;;26.00;29.13
76611;BME280;65503;48.534;9.062;2023-06-04T06:25:33;97062.22;;;25.68;30.28
76611;BME280;65503;48.534;9.062;2023-06-04T06:27:59;97060.94;;;25.74;29.89
76611;BME280;65503;48.534;9.062;2023-06-04T06:30:26;97071.34;;;25.84;30.92
76611;BME280;65503;48.534;9.062;2023-06-04T06:32:53;97077.09;;;26.32;29.52
76611;BME280;65503;48.534;9.062;2023-06-04T06:35:22;97069.25;;;25.89;28.66
76611;BME280;65503;48.534;9.062;2023-06-04T06:37:48;97064.81;;;26.14;28.30
76611;BME280;65503;48.534;9.062;2023-06-04T06:40:15;97071.34;;;26.43;29.44
76611;BME280;65503;48.534;9.062;2023-06-04T06:42:41;97072.44;;;25.45;28.42
76611;BME280;65503;48.534;9.062;2023-06-04T06:45:08;97071.91;;;25.05;28.71
76611;BME280;65503;48.534;9.062;2023-06-04T06:47:35;97075.66;;;25.21;29.72
76611;BME280;65503;48.534;9.062;2023-06-04T06:50:01;97072.75;;;25.43;29.17
76611;BME280;65503;48.534;9.062;2023-06-04T06:52:28;97077.19;;;25.86;27.54
76611;BME280;65503;48.534;9.062;2023-06-04T06:54:56;97078.47;;;26.39;27.69
76611;BME280;65503;48.534;9.062;2023-06-04T06:57:23;97067.63;;;25.68;29.05
76611;BME280;65503;48.534;9.062;2023-06-04T06:59:49;97074.13;;;26.67;28.69
76611;BME280;65503;48.534;9.062;2023-06-04T07:02:18;97075.78;;;26.39;28.32
76611;BME280;65503;48.534;9.062;2023-06-04T07:04:44;97071.53;;;26.08;28.31
76611;BME280;65503;48.534;9.062;2023-06-04T07:07:11;97079.22;;;26.48;27.18
76611;BME280;65503;48.534;9.062;2023-06-04T07:09:37;97077.28;;;25.98;27.93
76611;BME280;65503;48.534;9.062;2023-06-04T07:12:04;97076.19;;;25.52;29.21
76611;BME280;65503;48.534;9.062;2023-06-04T07:14:31;97079.78;;;26.03;28.64
76611;BME280;65503;48.534;9.062;2023-06-04T07:16:57;97073.28;;;25.75;28.84
76611;BME280;65503;48.534;9.062;2023-06-04T07:19:24;97072.88;;;24.92;30.10
76611;BME280;65503;48.534;9.062;2023-06-04T07:21:54;97074.56;;;25.22;29.79
76611;BME280;65503;48.534;9.062;2023-06-04T07:24:21;97077.81;;;25.91;28.83
76611;BME280;65503;48.534;9.062;2023-06-04T07:26:48;97067.44;;;26.02;29.02
76611;BME280;65503;48.534;9.062;2023-06-04T07:29:14;97076.19;;;26.49;28.72
76611;BME280;65503;48.534;9.062;2023-06-04T07:31:41;97078.66;;;27.17;27.55
76611;BME280;65503;48.534;9.062;2023-06-04T07:34:08;97077.09;;;27.28;28.08
76611;BME280;65503;48.534;9.062;2023-06-04T07:36:34;97073.78;;;27.55;27.71
76611;BME280;65503;48.534;9.062;2023-06-04T07:39:01;97079.66;;;27.93;27.12
76611;BME280;65503;48.534;9.062;2023-06-04T07:41:27;97075.72;;;28.15;27.77
76611;BME280;65503;48.534;9.062;2023-06-04T07:43:54;97072.75;;;28.72;25.63
76611;BME280;65503;48.534;9.062;2023-06-04T07:46:20;97075.59;;;27.18;27.84
76611;BME280;65503;48.534;9.062;2023-06-04T07:48:47;97075.41;;;27.35;27.26
76611;BME280;65503;48.534;9.062;2023-06-04T07:51:13;97067.06;;;26.95;28.58
76611;BME280;65503;48.534;9.062;2023-06-04T07:53:41;97059.31;;;27.39;27.21
76611;BME280;65503;48.534;9.062;2023-06-04T07:56:08;97062.50;;;27.53;27.97
76611;BME280;65503;48.534;9.062;2023-06-04T07:58:35;97055.63;;;26.98;28.42
76611;BME280;65503;48.534;9.062;2023-06-04T08:01:01;97057.81;;;27.62;28.19
76611;BME280;65503;48.534;9.062;2023-06-04T08:03:28;97054.41;;;28.54;26.46
76611;BME280;65503;48.534;9.062;2023-06-04T08:05:54;97059.63;;;29.30;26.01
76611;BME280;65503;48.534;9.062;2023-06-04T08:08:21;97054.59;;;30.07;24.78
76611;BME280;65503;48.534;9.062;2023-06-04T08:10:47;97055.19;;;30.51;23.58
76611;BME280;65503;48.534;9.062;2023-06-04T08:13:14;97052.09;;;30.72;23.75
76611;BME280;65503;48.534;9.062;2023-06-04T08:15:40;97065.28;;;31.08;23.03
76611;BME280;65503;48.534;9.062;2023-06-04T08:18:07;97065.41;;;31.15;23.63
76611;BME280;65503;48.534;9.062;2023-06-04T08:20:33;97060.88;;;29.80;24.72
76611;BME280;65503;48.534;9.062;2023-06-04T08:23:00;97064.28;;;27.49;28.14
76611;BME280;65503;48.534;9.062;2023-06-04T08:25:26;97060.63;;;27.78;28.01
76611;BME280;65503;48.534;9.062;2023-06-04T08:27:53;97050.78;;;27.85;27.63
76611;BME280;65503;48.534;9.062;2023-06-04T08:30:19;97054.09;;;27.22;28.38
76611;BME280;65503;48.534;9.062;2023-06-04T08:32:46;97059.31;;;27.39;28.46
76611;BME280;65503;48.534;9.062;2023-06-04T08:35:12;97059.31;;;27.39;28.53
76611;BME280;65503;48.534;9.062;2023-06-04T08:37:39;97058.59;;;27.18;28.56
76611;BME280;65503;48.534;9.062;2023-06-04T08:40:06;97050.09;;;27.52;28.05
76611;BME280;65503;48.534;9.062;2023-06-04T08:42:40;97052.44;;;27.41;29.37
76611;BME280;65503;48.534;9.062;2023-06-04T08:45:12;97050.13;;;27.88;28.67
76611;BME280;65503;48.534;9.062;2023-06-04T08:47:44;97054.50;;;28.05;27.77
76611;BME280;65503;48.534;9.062;2023-06-04T08:50:16;97058.81;;;28.58;27.88
76611;BME280;65503;48.534;9.062;2023-06-04T08:52:44;97059.06;;;28.53;27.87
76611;BME280;65503;48.534;9.062;2023-06-04T08:55:11;97055.69;;;28.44;26.97
76611;BME280;65503;48.534;9.062;2023-06-04T08:57:40;97060.06;;;28.49;27.95
76611;BME280;65503;48.534;9.062;2023-06-04T09:00:07;97066.94;;;28.58;27.26
76611;BME280;65503;48.534;9.062;2023-06-04T09:02:37;97055.88;;;27.05;28.45
76611;BME280;65503;48.534;9.062;2023-06-04T09:05:05;97059.25;;;27.84;28.52
76611;BME280;65503;48.534;9.062;2023-06-04T09:07:38;97063.31;;;28.14;27.02
76611;BME280;65503;48.534;9.062;2023-06-04T09:10:06;97065.56;;;28.64;27.07
76611;BME280;65503;48.534;9.062;2023-06-04T09:12:42;97070.25;;;28.92;27.23
76611;BME280;65503;48.534;9.062;2023-06-04T09:15:13;97071.53;;;28.70;27.58
76611;BME280;65503;48.534;9.062;2023-06-04T09:17:39;97080.19;;;28.88;26.18
76611;BME280;65503;48.534;9.062;2023-06-04T09:20:06;97067.69;;;27.58;28.41
76611;BME280;65503;48.534;9.062;2023-06-04T09:22:36;97071.56;;;26.91;29.10
76611;BME280;65503;48.534;9.062;2023-06-04T09:25:05;97070.63;;;26.87;29.77
76611;BME280;65503;48.534;9.062;2023-06-04T09:27:40;97067.84;;;27.29;28.49
76611;BME280;65503;48.534;9.062;2023-06-04T09:30:07;97058.25;;;27.76;28.45
76611;BME280;65503;48.534;9.062;2023-06-04T09:32:37;97069.28;;;27.83;27.28
76611;BME280;65503;48.534;9.062;2023-06-04T09:37:54;97072.47;;;27.40;28.00
76611;BME280;65503;48.534;9.062;2023-06-04T09:40:22;97074.34;;;27.16;27.93
76611;BME280;65503;48.534;9.062;2023-06-04T09:42:50;97062.03;;;26.94;28.30
76611;BME280;65503;48.534;9.062;2023-06-04T09:45:31;97062.69;;;27.48;28.92
76611;BME280;65503;48.534;9.062;2023-06-04T09:47:59;97055.56;;;28.13;27.63
76611;BME280;65503;48.534;9.062;2023-06-04T09:50:30;97062.06;;;27.75;27.71
76611;BME280;65503;48.534;9.062;2023-06-04T09:52:58;97053.06;;;27.14;28.47
76611;BME280;65503;48.534;9.062;2023-06-04T09:55:25;97065.38;;;27.36;29.87
76611;BME280;65503;48.534;9.062;2023-06-04T09:57:52;97059.34;;;28.00;27.49
76611;BME280;65503;48.534;9.062;2023-06-04T10:00:21;97061.84;;;27.92;27.62
76611;BME280;65503;48.534;9.062;2023-06-04T10:02:53;97057.44;;;27.88;29.22
76611;BME280;65503;48.534;9.062;2023-06-04T10:05:22;97062.31;;;27.82;28.52
76611;BME280;65503;48.534;9.062;2023-06-04T10:07:51;97066.06;;;27.33;28.74
76611;BME280;65503;48.534;9.062;2023-06-04T10:10:20;97060.72;;;27.81;29.00
76611;BME280;65503;48.534;9.062;2023-06-04T10:12:50;97058.59;;;28.63;28.34
76611;BME280;65503;48.534;9.062;2023-06-04T10:15:21;97062.53;;;28.94;27.42
76611;BME280;65503;48.534;9.062;2023-06-04T10:17:47;97065.16;;;28.50;26.54
76611;BME280;65503;48.534;9.062;2023-06-04T10:20:14;97061.41;;;28.55;27.39
76611;BME280;65503;48.534;9.062;2023-06-04T10:22:41;97051.44;;;28.31;28.09
76611;BME280;65503;48.534;9.062;2023-06-04T10:25:09;97054.69;;;28.76;27.96
76611;BME280;65503;48.534;9.062;2023-06-04T10:27:36;97066.59;;;28.08;27.19
76611;BME280;65503;48.534;9.062;2023-06-04T10:30:04;97055.88;;;27.99;27.50
76611;BME280;65503;48.534;9.062;2023-06-04T10:32:31;97064.78;;;28.24;27.98
76611;BME280;65503;48.534;9.062;2023-06-04T10:34:58;97054.56;;;28.85;27.58
76611;BME280;65503;48.534;9.062;2023-06-04T10:37:26;97048.91;;;28.50;27.24
76611;BME280;65503;48.534;9.062;2023-06-04T10:39:57;97058.13;;;28.61;26.43
76611;BME280;65503;48.534;9.062;2023-06-04T10:42:24;97051.69;;;28.14;27.00
76611;BME280;65503;48.534;9.062;2023-06-04T10:44:53;97055.69;;;27.35;26.98
76611;BME280;65503;48.534;9.062;2023-06-04T10:47:27;97050.13;;;28.13;26.81
76611;BME280;65503;48.534;9.062;2023-06-04T10:50:07;97044.94;;;27.71;27.12
76611;BME280;65503;48.534;9.062;2023-06-04T10:52:33;97044.22;;;27.38;28.60
76611;BME280;65503;48.534;9.062;2023-06-04T10:55:04;97052.31;;;27.38;27.57
76611;BME280;65503;48.534;9.062;2023-06-04T10:57:32;97049.94;;;27.36;27.71
76611;BME280;65503;48.534;9.062;2023-06-04T11:00:00;97049.00;;;27.53;27.19
76611;BME280;65503;48.534;9.062;2023-06-04T11:02:27;97046.06;;;28.07;28.12
76611;BME280;65503;48.534;9.062;2023-06-04T11:05:04;97052.78;;;28.37;26.51
76611;BME280;65503;48.534;9.062;2023-06-04T11:07:42;97041.63;;;28.66;26.32
76611;BME280;65503;48.534;9.062;2023-06-04T11:10:11;97046.16;;;28.74;26.89
76611;BME280;65503;48.534;9.062;2023-06-04T11:12:47;97048.69;;;28.43;25.76
76611;BME280;65503;48.534;9.062;2023-06-04T11:15:14;97049.66;;;27.74;27.95
76611;BME280;65503;48.534;9.062;2023-06-04T11:17:55;97048.06;;;28.34;26.87
76611;BME280;65503;48.534;9.062;2023-06-04T11:20:25;97050.53;;;28.27;26.23
76611;BME280;65503;48.534;9.062;2023-06-04T11:25:19;97043.81;;;27.60;26.97
76611;BME280;65503;48.534;9.062;2023-06-04T11:27:46;97044.31;;;26.63;29.65
76611;BME280;65503;48.534;9.062;2023-06-04T11:30:13;97035.88;;;27.31;28.30
76611;BME280;65503;48.534;9.062;2023-06-04T11:32:41;97036.03;;;26.48;29.18
76611;BME280;65503;48.534;9.062;2023-06-04T11:35:08;97042.28;;;26.40;29.59
76611;BME280;65503;48.534;9.062;2023-06-04T11:37:34;97041.78;;;27.57;28.01
76611;BME280;65503;48.534;9.062;2023-06-04T11:40:02;97045.56;;;28.41;27.02
76611;BME280;65503;48.534;9.062;2023-06-04T11:42:30;97052.75;;;29.05;25.45
76611;BME280;65503;48.534;9.062;2023-06-04T11:44:57;97039.03;;;29.41;25.66
76611;BME280;65503;48.534;9.062;2023-06-04T11:47:24;97047.03;;;29.22;24.43
76611;BME280;65503;48.534;9.062;2023-06-04T11:49:58;97045.59;;;28.17;25.95
76611;BME280;65503;48.534;9.062;2023-06-04T11:52:25;97044.84;;;27.68;26.82
76611;BME280;65503;48.534;9.062;2023-06-04T11:54:52;97036.38;;;28.18;26.32
76611;BME280;65503;48.534;9.062;2023-06-04T11:57:18;97035.22;;;28.07;26.72
76611;BME280;65503;48.534;9.062;2023-06-04T11:59:45;97042.56;;;28.58;25.65
76611;BME280;65503;48.534;9.062;2023-06-04T12:02:12;97035.16;;;28.83;26.07
76611;BME280;65503;48.534;9.062;2023-06-04T12:04:38;97032.16;;;29.16;25.34
76611;BME280;65503;48.534;9.062;2023-06-04T12:07:05;97033.25;;;29.58;24.65
76611;BME280;65503;48.534;9.062;2023-06-04T12:09:32;97038.72;;;30.09;24.58
76611;BME280;65503;48.534;9.062;2023-06-04T12:12:06;97037.59;;;29.16;24.10
76611;BME280;65503;48.534;9.062;2023-06-04T12:14:33;97028.09;;;28.94;25.63
76611;BME280;65503;48.534;9.062;2023-06-04T12:19:28;97021.47;;;28.24;25.68
76611;BME280;65503;48.534;9.062;2023-06-04T12:21:59;97024.41;;;28.07;25.09
76611;BME280;65503;48.534;9.062;2023-06-04T12:24:29;97020.44;;;28.56;24.11
76611;BME280;65503;48.534;9.062;2023-06-04T12:27:07;97024.88;;;29.32;24.34
76611;BME280;65503;48.534;9.062;2023-06-04T12:29:37;97028.50;;;29.24;25.35
76611;BME280;65503;48.534;9.062;2023-06-04T12:32:08;97028.47;;;28.93;24.28
76611;BME280;65503;48.534;9.062;2023-06-04T12:34:39;97021.00;;;28.22;25.37
76611;BME280;65503;48.534;9.062;2023-06-04T12:37:07;97025.16;;;28.59;25.15
76611;BME280;65503;48.534;9.062;2023-06-04T12:39:35;97019.56;;;28.52;25.11
76611;BME280;65503;48.534;9.062;2023-06-04T12:42:05;97020.13;;;27.93;25.34
76611;BME280;65503;48.534;9.062;2023-06-04T12:44:32;97020.53;;;27.10;27.38
76611;BME280;65503;48.534;9.062;2023-06-04T12:47:01;97010.72;;;27.18;27.41
76611;BME280;65503;48.534;9.062;2023-06-04T12:49:28;97013.72;;;26.92;27.85
76611;BME280;65503;48.534;9.062;2023-06-04T12:51:54;97016.88;;;27.64;26.17
76611;BME280;65503;48.534;9.062;2023-06-04T12:54:21;97016.28;;;28.19;24.84
76611;BME280;65503;48.534;9.062;2023-06-04T12:56:48;97023.34;;;28.75;24.28
76611;BME280;65503;48.534;9.062;2023-06-04T12:59:14;97013.63;;;29.18;23.98
76611;BME280;65503;48.534;9.062;2023-06-04T13:01:41;97013.06;;;28.41;24.56
76611;BME280;65503;48.534;9.062;2023-06-04T13:04:08;97022.84;;;28.86;24.89
76611;BME280;65503;48.534;9.062;2023-06-04T13:06:35;97015.69;;;28.93;25.39
76611;BME280;65503;48.534;9.062;2023-06-04T13:09:02;97022.13;;;28.61;24.92
76611;BME280;65503;48.534;9.062;2023-06-04T13:11:30;97010.34;;;27.77;24.09
76611;BME280;65503;48.534;9.062;2023-06-04T13:13:56;97017.00;;;27.67;23.67